createdAt,value
2018-09-19T00:00:17.823Z,21.70
2018-09-19T00:02:46.123Z,21.60
2018-09-19T00:05:14.409Z,21.50
2018-09-19T00:07:42.868Z,21.50
2018-09-19T00:10:11.179Z,21.40
2018-09-19T00:12:39.463Z,21.40
2018-09-19T00:15:07.873Z,21.40
2018-09-19T00:17:36.231Z,21.40
2018-09-19T00:20:04.729Z,21.40
2018-09-19T00:22:33.116Z,21.30
2018-09-19T00:25:01.470Z,21.30
2018-09-19T00:27:29.754Z,21.30
2018-09-19T00:29:58.027Z,21.30
2018-09-19T00:32:26.317Z,21.20
2018-09-19T00:34:54.651Z,21.20
2018-09-19T00:37:22.951Z,21.20
2018-09-19T00:39:51.252Z,21.20
2018-09-19T00:42:19.544Z,21.20
2018-09-19T00:44:47.912Z,21.20
2018-09-19T00:47:16.205Z,21.20
2018-09-19T00:49:44.481Z,21.00
2018-09-19T00:52:12.809Z,21.00
2018-09-19T00:54:41.161Z,20.90
2018-09-19T00:57:09.554Z,20.60
2018-09-19T00:59:37.969Z,20.40
2018-09-19T01:02:06.567Z,20.30
2018-09-19T01:04:34.914Z,20.20
2018-09-19T01:07:03.261Z,20.30
2018-09-19T01:09:31.561Z,20.40
2018-09-19T01:11:59.833Z,20.40
2018-09-19T01:14:28.207Z,20.40
2018-09-19T01:16:56.473Z,20.50
2018-09-19T01:19:24.771Z,20.60
2018-09-19T01:21:53.067Z,20.60
2018-09-19T01:24:21.367Z,20.70
2018-09-19T01:26:49.718Z,20.60
2018-09-19T01:29:18.061Z,20.60
2018-09-19T01:31:46.465Z,20.60
2018-09-19T01:34:14.759Z,20.60
2018-09-19T01:36:43.103Z,20.60
2018-09-19T01:39:11.499Z,20.60
2018-09-19T01:41:39.793Z,20.50
2018-09-19T01:44:08.125Z,20.40
2018-09-19T01:46:36.426Z,20.40
2018-09-19T01:49:04.801Z,20.30
2018-09-19T01:51:33.073Z,20.20
2018-09-19T01:54:01.397Z,20.20
2018-09-19T01:56:30.519Z,20.20
2018-09-19T01:58:58.881Z,20.20
2018-09-19T02:01:27.213Z,20.10
2018-09-19T02:03:55.509Z,20.00
2018-09-19T02:06:23.814Z,19.90
2018-09-19T02:08:52.092Z,19.80
2018-09-19T02:11:20.377Z,19.70
2018-09-19T02:13:48.695Z,19.60
2018-09-19T02:16:17.022Z,19.50
2018-09-19T02:18:45.322Z,19.50
2018-09-19T02:21:13.639Z,19.50
2018-09-19T02:23:41.913Z,19.40
2018-09-19T02:26:10.286Z,19.50
2018-09-19T02:28:38.628Z,19.50
2018-09-19T02:31:07.033Z,19.50
2018-09-19T02:33:35.336Z,19.40
2018-09-19T02:36:03.632Z,19.40
2018-09-19T02:38:31.936Z,19.30
2018-09-19T02:41:00.201Z,19.20
2018-09-19T02:43:28.544Z,19.00
2018-09-19T02:45:56.859Z,18.90
2018-09-19T02:48:25.151Z,18.80
2018-09-19T02:50:53.473Z,18.50
2018-09-19T02:53:22.735Z,18.30
2018-09-19T02:55:51.069Z,18.20
2018-09-19T02:58:19.346Z,18.00
2018-09-19T03:00:47.662Z,17.90
2018-09-19T03:03:15.926Z,17.80
2018-09-19T03:05:44.240Z,17.70
2018-09-19T03:08:12.551Z,17.70
2018-09-19T03:10:40.827Z,17.60
2018-09-19T03:13:09.133Z,17.50
2018-09-19T03:15:37.457Z,17.50
2018-09-19T03:18:05.785Z,17.70
2018-09-19T03:20:34.097Z,17.80
2018-09-19T03:23:02.407Z,17.90
2018-09-19T03:25:30.755Z,18.00
2018-09-19T03:27:59.061Z,18.10
2018-09-19T03:30:27.379Z,18.20
2018-09-19T03:32:55.681Z,18.30
2018-09-19T03:35:24.149Z,18.30
2018-09-19T03:37:52.409Z,18.30
2018-09-19T03:40:20.682Z,18.20
2018-09-19T03:42:49.031Z,18.00
2018-09-19T03:45:17.327Z,17.80
2018-09-19T03:47:45.630Z,17.70
2018-09-19T03:50:13.966Z,17.50
2018-09-19T03:52:42.512Z,17.50
2018-09-19T03:55:10.818Z,17.40
2018-09-19T03:57:39.164Z,17.30
2018-09-19T04:00:07.507Z,17.30
2018-09-19T04:02:35.833Z,17.20
2018-09-19T04:05:04.176Z,17.10
2018-09-19T04:07:32.435Z,17.10
2018-09-19T04:10:00.768Z,17.10
2018-09-19T04:12:29.053Z,17.00
2018-09-19T04:14:57.417Z,17.00
2018-09-19T04:17:25.837Z,16.90
2018-09-19T04:19:54.168Z,16.90
2018-09-19T04:22:22.519Z,16.90
2018-09-19T04:24:50.849Z,16.90
2018-09-19T04:27:19.166Z,17.00
2018-09-19T04:29:47.465Z,17.00
2018-09-19T04:32:15.831Z,17.10
2018-09-19T04:34:44.155Z,17.10
2018-09-19T04:37:12.452Z,17.20
2018-09-19T04:39:40.761Z,17.30
2018-09-19T04:42:09.136Z,17.30
2018-09-19T04:44:37.459Z,17.30
2018-09-19T04:47:05.759Z,17.20
2018-09-19T04:49:34.051Z,17.10
2018-09-19T04:52:02.376Z,17.00
2018-09-19T04:54:30.665Z,17.10
2018-09-19T04:56:58.990Z,17.00
2018-09-19T04:59:27.315Z,17.00
2018-09-19T05:01:55.603Z,17.10
2018-09-19T05:04:23.910Z,17.00
2018-09-19T05:06:52.409Z,17.10
2018-09-19T05:09:20.731Z,17.10
2018-09-19T05:11:49.081Z,17.10
2018-09-19T05:14:17.383Z,17.10
2018-09-19T05:16:45.677Z,17.10
2018-09-19T05:19:13.965Z,17.10
2018-09-19T05:21:42.305Z,17.10
2018-09-19T05:24:10.587Z,17.20
2018-09-19T05:26:39.015Z,17.40
2018-09-19T05:29:07.316Z,17.40
2018-09-19T05:31:35.777Z,17.40
2018-09-19T05:34:04.039Z,17.40
2018-09-19T05:36:32.503Z,17.40
2018-09-19T05:39:00.804Z,17.40
2018-09-19T05:41:29.150Z,17.40
2018-09-19T05:43:57.481Z,17.40
2018-09-19T05:46:25.910Z,17.40
2018-09-19T05:48:54.501Z,17.30
2018-09-19T05:51:22.783Z,17.30
2018-09-19T05:53:51.157Z,17.20
2018-09-19T05:56:19.483Z,17.10
2018-09-19T05:58:47.951Z,17.30
2018-09-19T06:01:16.925Z,17.30
2018-09-19T06:03:46.172Z,17.50
2018-09-19T06:06:14.552Z,17.60
2018-09-19T06:08:42.887Z,17.70
2018-09-19T06:11:11.203Z,17.80
2018-09-19T06:13:39.522Z,18.00
2018-09-19T06:16:07.829Z,18.00
2018-09-19T06:18:36.161Z,18.10
2018-09-19T06:21:07.469Z,18.30
2018-09-19T06:23:35.755Z,18.50
2018-09-19T06:26:04.087Z,18.70
2018-09-19T06:28:32.387Z,18.70
2018-09-19T06:31:00.691Z,19.10
2018-09-19T06:33:29.298Z,19.30
2018-09-19T06:35:57.563Z,19.50
2018-09-19T06:38:25.980Z,19.60
2018-09-19T06:40:54.392Z,19.70
2018-09-19T06:43:22.648Z,20.10
2018-09-19T06:45:51.163Z,20.30
2018-09-19T06:48:19.506Z,20.60
2018-09-19T06:50:47.784Z,21.00
2018-09-19T06:53:16.090Z,21.20
2018-09-19T06:55:44.434Z,21.30
2018-09-19T06:58:12.748Z,21.80
2018-09-19T07:00:41.156Z,21.90
2018-09-19T07:03:09.423Z,22.10
2018-09-19T07:05:37.755Z,22.20
2018-09-19T07:08:06.379Z,22.10
2018-09-19T07:10:34.699Z,22.20
2018-09-19T07:13:03.009Z,22.30
2018-09-19T07:15:31.295Z,22.50
2018-09-19T07:17:59.603Z,22.50
2018-09-19T07:20:27.942Z,22.40
2018-09-19T07:22:56.529Z,22.60
2018-09-19T07:25:24.864Z,22.80
2018-09-19T07:27:53.178Z,23.00
2018-09-19T07:30:21.452Z,23.50
2018-09-19T07:32:49.792Z,23.70
2018-09-19T07:35:18.208Z,24.00
2018-09-19T07:37:46.521Z,24.30
2018-09-19T07:40:14.855Z,24.40
2018-09-19T07:42:43.137Z,24.70
2018-09-19T07:45:11.438Z,24.90
2018-09-19T07:47:39.746Z,25.10
2018-09-19T07:50:08.773Z,25.20
2018-09-19T07:52:37.117Z,25.30
2018-09-19T07:55:05.588Z,25.30
2018-09-19T07:57:33.915Z,25.40
2018-09-19T08:00:02.217Z,25.40
2018-09-19T08:02:30.538Z,25.60
2018-09-19T08:04:58.901Z,25.90
2018-09-19T08:07:27.201Z,26.10
2018-09-19T08:09:55.579Z,26.30
2018-09-19T08:12:23.877Z,26.00
2018-09-19T08:14:52.149Z,25.20
2018-09-19T08:17:20.836Z,24.60
2018-09-19T08:19:49.160Z,24.20
2018-09-19T08:22:17.525Z,24.70
2018-09-19T08:24:45.866Z,25.60
2018-09-19T08:27:14.256Z,26.60
2018-09-19T08:29:42.640Z,27.30
2018-09-19T08:32:10.965Z,27.70
2018-09-19T08:34:39.253Z,28.10
2018-09-19T08:37:07.573Z,27.70
2018-09-19T08:39:35.991Z,27.20
2018-09-19T08:42:04.317Z,27.50
2018-09-19T08:44:32.637Z,27.40
2018-09-19T08:47:00.962Z,27.10
2018-09-19T08:49:29.265Z,26.70
2018-09-19T08:51:57.569Z,26.30
2018-09-19T08:54:25.904Z,26.30
2018-09-19T08:56:54.263Z,26.80
2018-09-19T08:59:22.597Z,27.60
2018-09-19T09:01:50.957Z,28.50
2018-09-19T09:04:19.249Z,29.00
2018-09-19T09:06:47.533Z,29.50
2018-09-19T09:09:15.845Z,29.70
2018-09-19T09:11:44.143Z,30.10
2018-09-19T09:14:12.472Z,30.30
2018-09-19T09:16:40.782Z,30.00
2018-09-19T09:19:09.104Z,30.00
2018-09-19T09:21:37.414Z,30.20
2018-09-19T09:24:05.717Z,30.40
2018-09-19T09:26:34.033Z,30.40
2018-09-19T09:29:02.425Z,30.50
2018-09-19T09:31:30.866Z,30.60
2018-09-19T09:33:59.191Z,30.60
2018-09-19T09:36:27.659Z,30.60
2018-09-19T09:38:56.061Z,30.30
2018-09-19T09:41:24.376Z,30.20
2018-09-19T09:43:52.835Z,30.00
2018-09-19T09:46:21.167Z,30.00
2018-09-19T09:48:50.535Z,30.10
2018-09-19T09:51:18.950Z,29.70
2018-09-19T09:53:47.370Z,29.70
2018-09-19T09:56:15.679Z,30.10
2018-09-19T09:58:44.103Z,30.10
2018-09-19T10:01:12.567Z,30.20
2018-09-19T10:03:40.809Z,30.40
2018-09-19T10:06:09.152Z,30.20
2018-09-19T10:08:37.546Z,29.60
2018-09-19T10:11:06.254Z,29.10
2018-09-19T10:13:34.611Z,28.70
2018-09-19T10:16:02.941Z,28.50
2018-09-19T10:18:31.630Z,28.50
2018-09-19T10:21:00.639Z,28.50
2018-09-19T10:23:28.921Z,28.10
2018-09-19T10:25:57.245Z,28.00
2018-09-19T10:28:25.538Z,28.00
2018-09-19T10:30:53.847Z,27.90
2018-09-19T10:33:22.490Z,28.00
2018-09-19T10:35:50.767Z,28.30
2018-09-19T10:38:19.248Z,28.10
2018-09-19T10:40:47.528Z,28.00
2018-09-19T10:43:15.873Z,28.00
2018-09-19T10:45:44.174Z,27.70
2018-09-19T10:48:12.565Z,27.80
2018-09-19T10:50:40.874Z,28.30
2018-09-19T10:53:09.201Z,28.90
2018-09-19T10:55:37.622Z,29.00
2018-09-19T10:58:05.953Z,29.00
2018-09-19T11:00:34.269Z,29.00
2018-09-19T11:03:02.642Z,29.50
2018-09-19T11:05:30.946Z,30.00
2018-09-19T11:07:59.239Z,30.50
2018-09-19T11:10:27.644Z,31.00
2018-09-19T11:12:55.940Z,31.40
2018-09-19T11:15:24.223Z,31.50
2018-09-19T11:17:52.615Z,31.00
2018-09-19T11:20:20.974Z,30.90
2018-09-19T11:22:49.302Z,31.10
2018-09-19T11:25:17.618Z,31.20
2018-09-19T11:27:45.990Z,31.10
2018-09-19T11:30:14.318Z,30.40
2018-09-19T11:32:42.721Z,29.60
2018-09-19T11:35:11.037Z,30.00
2018-09-19T11:37:39.350Z,30.20
2018-09-19T11:40:07.777Z,30.10
2018-09-19T11:42:36.075Z,30.30
2018-09-19T11:45:04.391Z,30.00
2018-09-19T11:47:32.705Z,30.20
2018-09-19T11:50:01.057Z,30.30
2018-09-19T11:52:29.401Z,30.10
2018-09-19T11:54:57.755Z,29.50
2018-09-19T11:57:26.159Z,29.20
2018-09-19T11:59:54.529Z,29.10
2018-09-19T12:02:22.899Z,29.20
2018-09-19T12:04:51.803Z,29.40
2018-09-19T12:07:20.523Z,29.50
2018-09-19T12:09:48.757Z,29.40
2018-09-19T12:12:17.062Z,29.30
2018-09-19T12:14:45.345Z,29.30
2018-09-19T12:17:13.633Z,29.20
2018-09-19T12:19:41.962Z,29.30
2018-09-19T12:22:10.357Z,29.20
2018-09-19T12:24:38.701Z,28.90
2018-09-19T12:27:07.047Z,28.40
2018-09-19T12:29:35.341Z,28.50
2018-09-19T12:32:04.262Z,28.70
2018-09-19T12:34:32.581Z,28.80
2018-09-19T12:37:00.861Z,29.00
2018-09-19T12:39:29.282Z,28.90
2018-09-19T12:41:57.525Z,28.70
2018-09-19T12:44:25.827Z,28.60
2018-09-19T12:46:54.153Z,28.60
2018-09-19T12:49:22.441Z,28.70
2018-09-19T12:51:51.015Z,28.80
2018-09-19T12:54:19.369Z,28.90
2018-09-19T12:56:47.799Z,29.00
2018-09-19T12:59:16.167Z,29.00
2018-09-19T13:01:44.487Z,29.00
2018-09-19T13:04:12.847Z,28.90
2018-09-19T13:06:41.131Z,29.00
2018-09-19T13:09:10.675Z,29.00
2018-09-19T13:11:39.227Z,29.00
2018-09-19T13:14:07.709Z,28.70
2018-09-19T13:16:36.025Z,28.60
2018-09-19T13:19:04.393Z,28.60
2018-09-19T13:21:32.670Z,28.60
2018-09-19T13:24:01.091Z,28.60
2018-09-19T13:26:29.600Z,28.80
2018-09-19T13:28:57.879Z,28.90
2018-09-19T13:31:26.148Z,29.00
2018-09-19T13:33:54.446Z,29.00
2018-09-19T13:36:22.767Z,28.90
2018-09-19T13:38:51.027Z,28.80
2018-09-19T13:41:19.424Z,28.70
2018-09-19T13:43:47.747Z,28.70
2018-09-19T13:46:16.348Z,28.70
2018-09-19T13:48:47.826Z,28.70
2018-09-19T13:51:20.027Z,28.70
2018-09-19T13:53:48.365Z,28.70
2018-09-19T13:56:16.702Z,28.70
2018-09-19T13:58:45.206Z,28.70
2018-09-19T14:01:13.857Z,28.80
2018-09-19T14:03:42.332Z,28.80
2018-09-19T14:06:10.589Z,28.80
2018-09-19T14:08:38.924Z,28.80
2018-09-19T14:11:07.313Z,28.70
2018-09-19T14:13:35.641Z,28.70
2018-09-19T14:16:04.119Z,28.60
2018-09-19T14:18:32.865Z,28.50
2018-09-19T14:21:01.285Z,28.50
2018-09-19T14:23:29.612Z,28.40
2018-09-19T14:25:57.915Z,28.40
2018-09-19T14:28:26.215Z,28.40
2018-09-19T14:30:54.489Z,28.50
2018-09-19T14:33:22.873Z,28.40
2018-09-19T14:35:51.225Z,28.50
2018-09-19T14:38:19.566Z,28.40
2018-09-19T14:40:47.874Z,28.40
2018-09-19T14:43:16.162Z,28.40
2018-09-19T14:45:44.546Z,28.40
2018-09-19T14:48:12.838Z,28.50
2018-09-19T14:50:41.121Z,28.40
2018-09-19T14:53:09.480Z,28.40
2018-09-19T14:55:37.777Z,28.40
2018-09-19T14:58:06.404Z,28.40
2018-09-19T15:00:34.721Z,28.40
2018-09-19T15:03:03.060Z,28.40
2018-09-19T15:05:31.449Z,28.30
2018-09-19T15:07:59.814Z,28.30
2018-09-19T15:10:28.329Z,28.30
2018-09-19T15:12:56.649Z,28.30
2018-09-19T15:15:24.998Z,28.30
2018-09-19T15:17:53.414Z,28.30
2018-09-19T15:20:21.857Z,28.30
2018-09-19T15:22:50.193Z,28.30
2018-09-19T15:25:18.512Z,28.30
2018-09-19T15:27:47.014Z,28.30
2018-09-19T15:30:15.313Z,28.30
2018-09-19T15:32:43.701Z,28.30
2018-09-19T15:35:18.718Z,28.30
2018-09-19T15:37:47.106Z,28.20
2018-09-19T15:40:15.388Z,28.20
2018-09-19T15:42:43.898Z,28.20
2018-09-19T15:45:12.516Z,28.10
2018-09-19T15:47:41.050Z,28.10
2018-09-19T15:50:09.513Z,28.00
2018-09-19T15:52:38.574Z,28.00
2018-09-19T15:55:06.938Z,28.00
2018-09-19T15:57:35.268Z,28.00
2018-09-19T16:00:04.755Z,27.90
2018-09-19T16:02:33.030Z,27.90
2018-09-19T16:05:01.366Z,27.90
2018-09-19T16:07:29.765Z,27.90
2018-09-19T16:09:58.055Z,27.80
2018-09-19T16:12:26.341Z,27.80
2018-09-19T16:14:54.915Z,27.70
2018-09-19T16:17:23.295Z,27.70
2018-09-19T16:19:51.613Z,27.70
2018-09-19T16:22:19.891Z,27.70
2018-09-19T16:24:49.071Z,27.60
2018-09-19T16:27:17.406Z,27.60
2018-09-19T16:29:45.752Z,27.60
2018-09-19T16:32:14.557Z,27.50
2018-09-19T16:34:42.906Z,27.50
2018-09-19T16:37:11.306Z,27.50
2018-09-19T16:39:39.663Z,27.40
2018-09-19T16:42:08.047Z,27.30
2018-09-19T16:44:36.377Z,27.30
2018-09-19T16:47:04.693Z,27.20
2018-09-19T16:49:32.972Z,27.20
2018-09-19T16:52:01.385Z,27.20
2018-09-19T16:54:29.705Z,27.10
2018-09-19T16:56:58.001Z,27.10
2018-09-19T16:59:26.332Z,27.00
2018-09-19T17:01:54.638Z,26.90
2018-09-19T17:04:22.978Z,26.90
2018-09-19T17:06:51.464Z,26.80
2018-09-19T17:09:20.009Z,26.80
2018-09-19T17:11:48.481Z,26.70
2018-09-19T17:14:16.833Z,26.60
2018-09-19T17:16:45.146Z,26.60
2018-09-19T17:19:13.470Z,26.50
2018-09-19T17:21:42.475Z,26.50
2018-09-19T17:24:10.771Z,26.40
2018-09-19T17:26:39.267Z,26.30
2018-09-19T17:29:07.591Z,26.30
2018-09-19T17:31:35.902Z,26.20
2018-09-19T17:34:04.199Z,26.20
2018-09-19T17:36:32.678Z,26.10
2018-09-19T17:39:01.044Z,26.10
2018-09-19T17:41:29.366Z,26.00
2018-09-19T17:43:58.308Z,26.00
2018-09-19T17:46:26.669Z,25.90
2018-09-19T17:48:55.160Z,25.90
2018-09-19T17:51:23.570Z,25.80
2018-09-19T17:53:52.125Z,25.80
2018-09-19T17:56:20.436Z,25.70
2018-09-19T17:58:49.099Z,25.70
2018-09-19T18:01:17.611Z,25.60
2018-09-19T18:03:46.018Z,25.60
2018-09-19T18:06:14.885Z,25.60
2018-09-19T18:08:43.258Z,25.60
2018-09-19T18:11:11.617Z,25.60
2018-09-19T18:13:40.051Z,25.60
2018-09-19T18:16:08.369Z,25.50
2018-09-19T18:18:37.181Z,25.50
2018-09-19T18:21:05.623Z,25.40
2018-09-19T18:23:34.013Z,25.40
2018-09-19T18:26:02.376Z,25.40
2018-09-19T18:28:30.701Z,25.30
2018-09-19T18:30:59.407Z,25.20
2018-09-19T18:33:28.133Z,25.20
2018-09-19T18:35:56.801Z,25.20
2018-09-19T18:38:25.456Z,25.10
2018-09-19T18:40:53.711Z,25.10
2018-09-19T18:43:22.050Z,25.00
2018-09-19T18:45:50.406Z,25.00
2018-09-19T18:48:18.745Z,25.00
2018-09-19T18:50:47.329Z,25.00
2018-09-19T18:53:15.790Z,24.90
2018-09-19T18:55:44.284Z,24.90
2018-09-19T18:58:13.673Z,24.90
2018-09-19T19:00:42.605Z,24.90
2018-09-19T19:03:11.954Z,24.80
2018-09-19T19:05:40.819Z,24.70
2018-09-19T19:08:09.547Z,24.80
2018-09-19T19:10:39.866Z,24.70
2018-09-19T19:13:09.436Z,24.70
2018-09-19T19:15:38.170Z,24.70
2018-09-19T19:18:06.538Z,24.60
2018-09-19T19:20:35.337Z,24.60
2018-09-19T19:23:09.834Z,24.50
2018-09-19T19:25:38.238Z,24.50
2018-09-19T19:28:07.428Z,24.50
2018-09-19T19:30:36.211Z,24.40
2018-09-19T19:33:04.561Z,24.40
2018-09-19T19:35:35.054Z,24.30
2018-09-19T19:38:07.143Z,24.30
2018-09-19T19:40:35.419Z,24.20
2018-09-19T19:43:03.699Z,24.30
2018-09-19T19:45:33.847Z,24.20
2018-09-19T19:48:02.288Z,24.20
2018-09-19T19:50:30.879Z,24.30
2018-09-19T19:52:59.714Z,24.20
2018-09-19T19:55:28.022Z,24.20
2018-09-19T19:57:56.759Z,24.20
2018-09-19T20:00:25.486Z,24.10
2018-09-19T20:02:53.802Z,24.10
2018-09-19T20:05:22.744Z,24.20
2018-09-19T20:07:51.154Z,24.20
2018-09-19T20:10:19.744Z,24.10
2018-09-19T20:12:48.101Z,24.00
2018-09-19T20:15:17.788Z,23.90
2018-09-19T20:17:46.641Z,23.70
2018-09-19T20:20:15.027Z,23.60
2018-09-19T20:22:43.449Z,23.50
2018-09-19T20:25:11.850Z,23.50
2018-09-19T20:27:40.138Z,23.40
2018-09-19T20:30:08.769Z,23.40
2018-09-19T20:32:37.049Z,23.40
2018-09-19T20:35:05.375Z,23.30
2018-09-19T20:37:33.749Z,23.30
2018-09-19T20:40:02.038Z,23.20
2018-09-19T20:42:30.349Z,23.20
2018-09-19T20:44:59.553Z,23.20
2018-09-19T20:47:27.964Z,23.10
2018-09-19T20:49:56.225Z,23.00
2018-09-19T20:52:24.498Z,23.00
2018-09-19T20:54:52.773Z,23.00
2018-09-19T20:57:21.017Z,22.90
2018-09-19T20:59:49.349Z,22.90
2018-09-19T21:02:17.654Z,22.90
2018-09-19T21:04:45.999Z,22.80
2018-09-19T21:07:14.449Z,22.80
2018-09-19T21:09:42.706Z,22.70
2018-09-19T21:12:10.997Z,22.70
2018-09-19T21:14:39.272Z,22.60
2018-09-19T21:17:07.553Z,22.60
2018-09-19T21:19:35.861Z,22.60
2018-09-19T21:22:04.296Z,22.60
2018-09-19T21:24:32.622Z,22.50
2018-09-19T21:27:00.927Z,22.40
2018-09-19T21:29:29.241Z,22.50
2018-09-19T21:31:57.572Z,22.40
2018-09-19T21:34:26.493Z,22.30
2018-09-19T21:36:54.816Z,22.30
2018-09-19T21:39:23.098Z,22.20
2018-09-19T21:41:51.409Z,22.20
2018-09-19T21:44:19.857Z,22.30
2018-09-19T21:46:48.189Z,22.20
2018-09-19T21:49:16.578Z,22.20
2018-09-19T21:51:44.990Z,22.20
2018-09-19T21:54:13.290Z,22.20
2018-09-19T21:56:41.683Z,22.20
2018-09-19T21:59:10.138Z,22.20
2018-09-19T22:01:43.326Z,22.20
2018-09-19T22:04:12.201Z,22.20
2018-09-19T22:06:40.978Z,22.20
2018-09-19T22:09:11.487Z,22.20
2018-09-19T22:11:39.962Z,22.20
2018-09-19T22:14:08.326Z,22.20
2018-09-19T22:16:36.633Z,22.10
2018-09-19T22:19:05.473Z,22.10
2018-09-19T22:21:33.759Z,22.10
2018-09-19T22:24:02.110Z,22.10
2018-09-19T22:26:30.389Z,22.10
2018-09-19T22:28:58.773Z,22.00
2018-09-19T22:31:27.325Z,22.10
2018-09-19T22:33:55.651Z,22.10
2018-09-19T22:36:24.024Z,22.00
2018-09-19T22:38:52.365Z,22.00
2018-09-19T22:41:21.209Z,21.90
2018-09-19T22:43:49.833Z,21.90
2018-09-19T22:46:18.143Z,21.80
2018-09-19T22:48:46.861Z,21.70
2018-09-19T22:51:15.171Z,21.60
2018-09-19T22:53:43.771Z,21.50
2018-09-19T22:56:12.225Z,21.40
2018-09-19T22:58:40.560Z,21.50
2018-09-19T23:01:08.854Z,21.50
2018-09-19T23:03:37.205Z,21.40
2018-09-19T23:06:05.551Z,21.40
2018-09-19T23:08:33.882Z,21.50
2018-09-19T23:11:02.230Z,21.50
2018-09-19T23:13:30.525Z,21.40
2018-09-19T23:15:58.837Z,21.40
2018-09-19T23:18:27.193Z,21.30
2018-09-19T23:20:55.622Z,21.20
2018-09-19T23:23:24.018Z,21.20
2018-09-19T23:25:52.343Z,21.10
2018-09-19T23:28:20.629Z,21.00
2018-09-19T23:30:48.938Z,20.90
2018-09-19T23:33:17.288Z,20.80
2018-09-19T23:35:45.610Z,20.70
2018-09-19T23:38:13.892Z,20.60
2018-09-19T23:40:42.362Z,20.50
2018-09-19T23:43:10.667Z,20.40
2018-09-19T23:45:39.003Z,20.30
2018-09-19T23:48:07.301Z,20.20
2018-09-19T23:50:35.596Z,20.20
2018-09-19T23:53:03.889Z,20.00
2018-09-19T23:55:32.280Z,19.80
2018-09-19T23:58:00.699Z,19.80
